sensor_id;sensor_type;location;lat;lon;timestamp;P1;durP1;ratioP1;P2;durP2;ratioP2
32026;SDS011;18543;50.848;4.596;2023-06-22T00:01:20;2.00;;;1.40;;
32026;SDS011;18543;50.848;4.596;2023-06-22T00:03:51;1.60;;;1.50;;
32026;SDS011;18543;50.848;4.596;2023-06-22T00:06:18;1.60;;;1.50;;
32026;SDS011;18543;50.848;4.596;2023-06-22T00:08:46;1.70;;;1.60;;
32026;SDS011;18543;50.848;4.596;2023-06-22T00:11:16;1.90;;;1.70;;
32026;SDS011;18543;50.848;4.596;2023-06-22T00:13:44;1.65;;;1.55;;
32026;SDS011;18543;50.848;4.596;2023-06-22T00:16:11;1.60;;;1.50;;
32026;SDS011;18543;50.848;4.596;2023-06-22T00:18:39;1.83;;;1.50;;
32026;SDS011;18543;50.848;4.596;2023-06-22T00:21:13;1.60;;;1.50;;
32026;SDS011;18543;50.848;4.596;2023-06-22T00:23:40;2.55;;;1.50;;
32026;SDS011;18543;50.848;4.596;2023-06-22T00:26:07;1.90;;;1.70;;
32026;SDS011;18543;50.848;4.596;2023-06-22T00:28:34;2.15;;;1.80;;
32026;SDS011;18543;50.848;4.596;2023-06-22T00:31:02;1.77;;;1.67;;
32026;SDS011;18543;50.848;4.596;2023-06-22T00:33:31;1.55;;;1.45;;
32026;SDS011;18543;50.848;4.596;2023-06-22T00:35:59;1.65;;;1.55;;
32026;SDS011;18543;50.848;4.596;2023-06-22T00:38:26;1.60;;;1.50;;
32026;SDS011;18543;50.848;4.596;2023-06-22T00:40:54;1.55;;;1.45;;
32026;SDS011;18543;50.848;4.596;2023-06-22T00:43:21;1.92;;;1.80;;
32026;SDS011;18543;50.848;4.596;2023-06-22T00:45:48;1.67;;;1.58;;
32026;SDS011;18543;50.848;4.596;2023-06-22T00:48:16;1.50;;;1.38;;
32026;SDS011;18543;50.848;4.596;2023-06-22T00:50:43;2.10;;;1.50;;
32026;SDS011;18543;50.848;4.596;2023-06-22T00:53:11;1.85;;;1.35;;
32026;SDS011;18543;50.848;4.596;2023-06-22T00:55:43;1.58;;;1.48;;
32026;SDS011;18543;50.848;4.596;2023-06-22T00:58:17;2.40;;;1.50;;
32026;SDS011;18543;50.848;4.596;2023-06-22T01:00:48;1.60;;;1.50;;
32026;SDS011;18543;50.848;4.596;2023-06-22T01:10:44;1.60;;;1.50;;
32026;SDS011;18543;50.848;4.596;2023-06-22T01:15:45;1.42;;;1.33;;
32026;SDS011;18543;50.848;4.596;2023-06-22T01:18:17;1.50;;;1.40;;
32026;SDS011;18543;50.848;4.596;2023-06-22T01:20:45;1.50;;;1.40;;
32026;SDS011;18543;50.848;4.596;2023-06-22T01:26:25;1.80;;;1.50;;
32026;SDS011;18543;50.848;4.596;2023-06-22T01:28:56;1.65;;;1.55;;
32026;SDS011;18543;50.848;4.596;2023-06-22T01:31:25;1.58;;;1.48;;
32026;SDS011;18543;50.848;4.596;2023-06-22T01:33:54;1.70;;;1.60;;
32026;SDS011;18543;50.848;4.596;2023-06-22T01:36:24;1.60;;;1.50;;
32026;SDS011;18543;50.848;4.596;2023-06-22T01:38:53;1.67;;;1.58;;
32026;SDS011;18543;50.848;4.596;2023-06-22T01:43:47;1.50;;;1.40;;
32026;SDS011;18543;50.848;4.596;2023-06-22T01:46:15;1.30;;;1.20;;
32026;SDS011;18543;50.848;4.596;2023-06-22T01:48:46;1.50;;;1.40;;
32026;SDS011;18543;50.848;4.596;2023-06-22T01:51:13;1.60;;;1.50;;
32026;SDS011;18543;50.848;4.596;2023-06-22T01:56:08;2.30;;;1.67;;
32026;SDS011;18543;50.848;4.596;2023-06-22T01:58:36;1.30;;;1.20;;
32026;SDS011;18543;50.848;4.596;2023-06-22T02:01:14;1.60;;;1.45;;
32026;SDS011;18543;50.848;4.596;2023-06-22T02:03:47;1.50;;;1.40;;
32026;SDS011;18543;50.848;4.596;2023-06-22T02:06:23;1.73;;;1.58;;
32026;SDS011;18543;50.848;4.596;2023-06-22T02:08:53;1.40;;;1.30;;
32026;SDS011;18543;50.848;4.596;2023-06-22T02:11:22;1.63;;;1.50;;
32026;SDS011;18543;50.848;4.596;2023-06-22T02:13:51;1.60;;;1.50;;
32026;SDS011;18543;50.848;4.596;2023-06-22T02:16:18;1.40;;;1.30;;
32026;SDS011;18543;50.848;4.596;2023-06-22T02:18:49;1.50;;;1.40;;
32026;SDS011;18543;50.848;4.596;2023-06-22T02:21:20;1.50;;;1.40;;
32026;SDS011;18543;50.848;4.596;2023-06-22T02:23:47;1.48;;;1.38;;
32026;SDS011;18543;50.848;4.596;2023-06-22T02:26:16;1.73;;;1.50;;
32026;SDS011;18543;50.848;4.596;2023-06-22T02:28:43;1.48;;;1.38;;
32026;SDS011;18543;50.848;4.596;2023-06-22T02:31:10;1.60;;;1.50;;
32026;SDS011;18543;50.848;4.596;2023-06-22T02:33:38;1.48;;;1.38;;
32026;SDS011;18543;50.848;4.596;2023-06-22T02:36:05;1.55;;;1.30;;
32026;SDS011;18543;50.848;4.596;2023-06-22T02:38:35;1.50;;;1.40;;
32026;SDS011;18543;50.848;4.596;2023-06-22T02:41:05;1.60;;;1.50;;
32026;SDS011;18543;50.848;4.596;2023-06-22T02:43:33;1.88;;;1.65;;
32026;SDS011;18543;50.848;4.596;2023-06-22T02:46:00;1.67;;;1.50;;
32026;SDS011;18543;50.848;4.596;2023-06-22T02:48:27;1.77;;;1.60;;
32026;SDS011;18543;50.848;4.596;2023-06-22T02:50:54;1.38;;;1.27;;
32026;SDS011;18543;50.848;4.596;2023-06-22T02:53:22;1.45;;;1.35;;
32026;SDS011;18543;50.848;4.596;2023-06-22T02:55:49;1.50;;;1.40;;
32026;SDS011;18543;50.848;4.596;2023-06-22T02:58:16;1.50;;;1.40;;
32026;SDS011;18543;50.848;4.596;2023-06-22T03:00:44;1.58;;;1.48;;
32026;SDS011;18543;50.848;4.596;2023-06-22T03:03:11;1.38;;;1.27;;
32026;SDS011;18543;50.848;4.596;2023-06-22T03:05:38;1.50;;;1.40;;
32026;SDS011;18543;50.848;4.596;2023-06-22T03:10:33;1.50;;;1.40;;
32026;SDS011;18543;50.848;4.596;2023-06-22T03:13:01;1.77;;;1.27;;
32026;SDS011;18543;50.848;4.596;2023-06-22T03:15:28;1.48;;;1.38;;
32026;SDS011;18543;50.848;4.596;2023-06-22T03:17:57;1.50;;;1.40;;
32026;SDS011;18543;50.848;4.596;2023-06-22T03:20:25;1.33;;;1.23;;
32026;SDS011;18543;50.848;4.596;2023-06-22T03:22:54;1.58;;;1.48;;
32026;SDS011;18543;50.848;4.596;2023-06-22T03:25:21;1.50;;;1.40;;
32026;SDS011;18543;50.848;4.596;2023-06-22T03:27:48;1.35;;;1.23;;
32026;SDS011;18543;50.848;4.596;2023-06-22T03:30:16;1.75;;;1.50;;
32026;SDS011;18543;50.848;4.596;2023-06-22T03:32:43;1.30;;;1.20;;
32026;SDS011;18543;50.848;4.596;2023-06-22T03:35:10;1.40;;;1.30;;
32026;SDS011;18543;50.848;4.596;2023-06-22T03:37:40;1.60;;;1.50;;
32026;SDS011;18543;50.848;4.596;2023-06-22T03:40:10;1.50;;;1.40;;
32026;SDS011;18543;50.848;4.596;2023-06-22T03:42:37;1.35;;;1.25;;
32026;SDS011;18543;50.848;4.596;2023-06-22T03:45:05;1.40;;;1.30;;
32026;SDS011;18543;50.848;4.596;2023-06-22T03:47:32;1.58;;;1.48;;
32026;SDS011;18543;50.848;4.596;2023-06-22T03:50:00;1.50;;;1.40;;
32026;SDS011;18543;50.848;4.596;2023-06-22T03:52:30;1.45;;;1.35;;
32026;SDS011;18543;50.848;4.596;2023-06-22T03:54:57;1.50;;;1.40;;
32026;SDS011;18543;50.848;4.596;2023-06-22T03:57:24;1.40;;;1.30;;
32026;SDS011;18543;50.848;4.596;2023-06-22T03:59:53;1.33;;;1.10;;
32026;SDS011;18543;50.848;4.596;2023-06-22T04:02:21;1.50;;;1.40;;
32026;SDS011;18543;50.848;4.596;2023-06-22T04:04:48;1.45;;;1.35;;
32026;SDS011;18543;50.848;4.596;2023-06-22T04:07:15;1.40;;;1.30;;
32026;SDS011;18543;50.848;4.596;2023-06-22T04:09:44;1.50;;;1.40;;
32026;SDS011;18543;50.848;4.596;2023-06-22T04:12:11;1.52;;;1.42;;
32026;SDS011;18543;50.848;4.596;2023-06-22T04:14:38;1.35;;;1.25;;
32026;SDS011;18543;50.848;4.596;2023-06-22T04:17:06;1.42;;;1.33;;
32026;SDS011;18543;50.848;4.596;2023-06-22T04:19:33;1.40;;;1.30;;
32026;SDS011;18543;50.848;4.596;2023-06-22T04:22:00;1.50;;;1.40;;
32026;SDS011;18543;50.848;4.596;2023-06-22T04:24:27;1.40;;;1.30;;
32026;SDS011;18543;50.848;4.596;2023-06-22T04:26:55;1.40;;;1.30;;
32026;SDS011;18543;50.848;4.596;2023-06-22T04:29:22;1.40;;;1.30;;
32026;SDS011;18543;50.848;4.596;2023-06-22T04:31:58;1.50;;;1.40;;
32026;SDS011;18543;50.848;4.596;2023-06-22T04:34:29;1.60;;;1.27;;
32026;SDS011;18543;50.848;4.596;2023-06-22T04:36:56;1.40;;;1.30;;
32026;SDS011;18543;50.848;4.596;2023-06-22T04:39:24;1.40;;;1.30;;
32026;SDS011;18543;50.848;4.596;2023-06-22T04:41:53;1.50;;;1.27;;
32026;SDS011;18543;50.848;4.596;2023-06-22T04:44:26;1.33;;;1.23;;
32026;SDS011;18543;50.848;4.596;2023-06-22T04:46:54;1.42;;;1.30;;
32026;SDS011;18543;50.848;4.596;2023-06-22T04:49:26;1.80;;;1.20;;
32026;SDS011;18543;50.848;4.596;2023-06-22T04:52:03;1.30;;;1.20;;
32026;SDS011;18543;50.848;4.596;2023-06-22T04:54:31;1.42;;;1.33;;
32026;SDS011;18543;50.848;4.596;2023-06-22T04:57:05;1.60;;;1.30;;
32026;SDS011;18543;50.848;4.596;2023-06-22T04:59:36;1.48;;;1.38;;
32026;SDS011;18543;50.848;4.596;2023-06-22T05:02:05;1.35;;;1.25;;
32026;SDS011;18543;50.848;4.596;2023-06-22T05:04:34;1.25;;;1.15;;
32026;SDS011;18543;50.848;4.596;2023-06-22T05:07:06;1.40;;;1.30;;
32026;SDS011;18543;50.848;4.596;2023-06-22T05:09:33;1.33;;;1.23;;
32026;SDS011;18543;50.848;4.596;2023-06-22T05:12:01;1.23;;;1.23;;
32026;SDS011;18543;50.848;4.596;2023-06-22T05:14:29;1.27;;;1.17;;
32026;SDS011;18543;50.848;4.596;2023-06-22T05:16:56;1.38;;;1.27;;
32026;SDS011;18543;50.848;4.596;2023-06-22T05:19:30;1.50;;;1.35;;
32026;SDS011;18543;50.848;4.596;2023-06-22T05:22:03;1.52;;;1.42;;
32026;SDS011;18543;50.848;4.596;2023-06-22T05:24:30;1.45;;;1.27;;
32026;SDS011;18543;50.848;4.596;2023-06-22T05:26:57;1.42;;;1.33;;
32026;SDS011;18543;50.848;4.596;2023-06-22T05:29:24;1.35;;;1.25;;
32026;SDS011;18543;50.848;4.596;2023-06-22T05:31:53;1.40;;;1.30;;
32026;SDS011;18543;50.848;4.596;2023-06-22T05:34:20;1.40;;;1.30;;
32026;SDS011;18543;50.848;4.596;2023-06-22T05:36:47;1.50;;;1.40;;
32026;SDS011;18543;50.848;4.596;2023-06-22T05:39:15;1.38;;;1.27;;
32026;SDS011;18543;50.848;4.596;2023-06-22T05:41:42;1.40;;;1.30;;
32026;SDS011;18543;50.848;4.596;2023-06-22T05:44:09;1.60;;;1.50;;
32026;SDS011;18543;50.848;4.596;2023-06-22T05:46:39;2.95;;;1.20;;
32026;SDS011;18543;50.848;4.596;2023-06-22T05:49:06;1.30;;;1.20;;
32026;SDS011;18543;50.848;4.596;2023-06-22T05:51:33;1.10;;;1.02;;
32026;SDS011;18543;50.848;4.596;2023-06-22T05:54:01;2.08;;;1.20;;
32026;SDS011;18543;50.848;4.596;2023-06-22T05:56:28;1.20;;;1.13;;
32026;SDS011;18543;50.848;4.596;2023-06-22T05:58:55;1.38;;;1.27;;
32026;SDS011;18543;50.848;4.596;2023-06-22T06:01:22;1.20;;;1.10;;
32026;SDS011;18543;50.848;4.596;2023-06-22T06:03:52;1.25;;;1.15;;
32026;SDS011;18543;50.848;4.596;2023-06-22T06:08:47;1.38;;;1.25;;
32026;SDS011;18543;50.848;4.596;2023-06-22T06:11:14;1.30;;;1.20;;
32026;SDS011;18543;50.848;4.596;2023-06-22T06:13:42;1.40;;;1.30;;
32026;SDS011;18543;50.848;4.596;2023-06-22T06:16:09;1.30;;;1.17;;
32026;SDS011;18543;50.848;4.596;2023-06-22T06:18:36;1.55;;;1.45;;
32026;SDS011;18543;50.848;4.596;2023-06-22T06:21:03;1.30;;;1.20;;
32026;SDS011;18543;50.848;4.596;2023-06-22T06:23:33;1.20;;;1.10;;
32026;SDS011;18543;50.848;4.596;2023-06-22T06:26:00;1.30;;;1.20;;
32026;SDS011;18543;50.848;4.596;2023-06-22T06:28:28;1.40;;;1.30;;
32026;SDS011;18543;50.848;4.596;2023-06-22T06:30:55;1.30;;;1.20;;
32026;SDS011;18543;50.848;4.596;2023-06-22T06:33:22;1.40;;;1.30;;
32026;SDS011;18543;50.848;4.596;2023-06-22T06:35:51;1.98;;;1.35;;
32026;SDS011;18543;50.848;4.596;2023-06-22T06:38:19;1.40;;;1.30;;
32026;SDS011;18543;50.848;4.596;2023-06-22T06:40:46;1.40;;;1.30;;
32026;SDS011;18543;50.848;4.596;2023-06-22T06:43:15;4.72;;;2.83;;
32026;SDS011;18543;50.848;4.596;2023-06-22T06:45:42;8.32;;;4.72;;
32026;SDS011;18543;50.848;4.596;2023-06-22T06:48:10;8.18;;;6.00;;
32026;SDS011;18543;50.848;4.596;2023-06-22T06:50:37;9.32;;;6.47;;
32026;SDS011;18543;50.848;4.596;2023-06-22T06:53:04;10.65;;;6.57;;
32026;SDS011;18543;50.848;4.596;2023-06-22T06:57:59;10.18;;;7.25;;
32026;SDS011;18543;50.848;4.596;2023-06-22T07:00:27;10.07;;;7.55;;
32026;SDS011;18543;50.848;4.596;2023-06-22T07:02:55;8.30;;;6.18;;
32026;SDS011;18543;50.848;4.596;2023-06-22T07:05:22;14.82;;;10.05;;
32026;SDS011;18543;50.848;4.596;2023-06-22T07:07:49;13.02;;;10.13;;
32026;SDS011;18543;50.848;4.596;2023-06-22T07:10:17;11.77;;;10.02;;
32026;SDS011;18543;50.848;4.596;2023-06-22T07:12:44;14.77;;;10.68;;
32026;SDS011;18543;50.848;4.596;2023-06-22T07:15:11;14.73;;;9.82;;
32026;SDS011;18543;50.848;4.596;2023-06-22T07:17:39;10.82;;;9.57;;
32026;SDS011;18543;50.848;4.596;2023-06-22T07:20:07;13.73;;;11.10;;
32026;SDS011;18543;50.848;4.596;2023-06-22T07:22:37;12.93;;;10.05;;
32026;SDS011;18543;50.848;4.596;2023-06-22T07:25:05;12.18;;;9.90;;
32026;SDS011;18543;50.848;4.596;2023-06-22T07:27:38;10.18;;;8.93;;
32026;SDS011;18543;50.848;4.596;2023-06-22T07:30:10;12.25;;;9.93;;
32026;SDS011;18543;50.848;4.596;2023-06-22T07:35:05;13.55;;;9.88;;
32026;SDS011;18543;50.848;4.596;2023-06-22T07:37:32;12.15;;;9.73;;
32026;SDS011;18543;50.848;4.596;2023-06-22T07:40:01;14.52;;;9.57;;
32026;SDS011;18543;50.848;4.596;2023-06-22T07:42:32;11.98;;;10.13;;
32026;SDS011;18543;50.848;4.596;2023-06-22T07:44:59;12.63;;;9.82;;
32026;SDS011;18543;50.848;4.596;2023-06-22T07:47:30;12.70;;;10.00;;
32026;SDS011;18543;50.848;4.596;2023-06-22T07:50:02;10.32;;;8.63;;
32026;SDS011;18543;50.848;4.596;2023-06-22T07:52:30;12.82;;;9.30;;
32026;SDS011;18543;50.848;4.596;2023-06-22T07:54:59;11.48;;;8.65;;
32026;SDS011;18543;50.848;4.596;2023-06-22T07:57:27;11.68;;;9.00;;
32026;SDS011;18543;50.848;4.596;2023-06-22T08:00:00;12.90;;;8.65;;
32026;SDS011;18543;50.848;4.596;2023-06-22T08:02:27;11.80;;;8.38;;
32026;SDS011;18543;50.848;4.596;2023-06-22T08:04:54;9.00;;;7.32;;
32026;SDS011;18543;50.848;4.596;2023-06-22T08:07:41;11.65;;;8.27;;
32026;SDS011;18543;50.848;4.596;2023-06-22T08:10:13;10.15;;;7.15;;
32026;SDS011;18543;50.848;4.596;2023-06-22T08:12:41;11.48;;;8.43;;
32026;SDS011;18543;50.848;4.596;2023-06-22T08:15:08;12.75;;;8.93;;
32026;SDS011;18543;50.848;4.596;2023-06-22T08:17:39;11.30;;;8.77;;
32026;SDS011;18543;50.848;4.596;2023-06-22T08:20:07;12.85;;;8.43;;
32026;SDS011;18543;50.848;4.596;2023-06-22T08:22:41;11.55;;;7.72;;
32026;SDS011;18543;50.848;4.596;2023-06-22T08:25:09;10.77;;;9.05;;
32026;SDS011;18543;50.848;4.596;2023-06-22T08:27:36;12.68;;;8.48;;
32026;SDS011;18543;50.848;4.596;2023-06-22T08:30:04;9.90;;;8.00;;
32026;SDS011;18543;50.848;4.596;2023-06-22T08:32:34;11.10;;;7.97;;
32026;SDS011;18543;50.848;4.596;2023-06-22T08:35:01;9.98;;;7.75;;
32026;SDS011;18543;50.848;4.596;2023-06-22T08:37:29;27.55;;;8.50;;
32026;SDS011;18543;50.848;4.596;2023-06-22T08:40:03;13.50;;;8.45;;
32026;SDS011;18543;50.848;4.596;2023-06-22T08:42:39;11.43;;;7.80;;
32026;SDS011;18543;50.848;4.596;2023-06-22T08:45:07;8.55;;;7.20;;
32026;SDS011;18543;50.848;4.596;2023-06-22T08:47:34;9.60;;;7.68;;
32026;SDS011;18543;50.848;4.596;2023-06-22T08:50:02;8.98;;;7.63;;
32026;SDS011;18543;50.848;4.596;2023-06-22T08:52:30;10.05;;;7.75;;
32026;SDS011;18543;50.848;4.596;2023-06-22T08:54:57;9.80;;;7.50;;
32026;SDS011;18543;50.848;4.596;2023-06-22T08:57:25;8.85;;;7.07;;
32026;SDS011;18543;50.848;4.596;2023-06-22T08:59:52;9.60;;;7.05;;
32026;SDS011;18543;50.848;4.596;2023-06-22T09:02:19;12.02;;;7.50;;
32026;SDS011;18543;50.848;4.596;2023-06-22T09:04:49;7.85;;;6.70;;
32026;SDS011;18543;50.848;4.596;2023-06-22T09:07:22;8.18;;;6.88;;
32026;SDS011;18543;50.848;4.596;2023-06-22T09:09:51;10.52;;;7.13;;
32026;SDS011;18543;50.848;4.596;2023-06-22T09:12:19;11.50;;;5.72;;
32026;SDS011;18543;50.848;4.596;2023-06-22T09:14:48;9.07;;;5.00;;
32026;SDS011;18543;50.848;4.596;2023-06-22T09:17:16;9.45;;;4.57;;
32026;SDS011;18543;50.848;4.596;2023-06-22T09:19:43;8.60;;;3.92;;
32026;SDS011;18543;50.848;4.596;2023-06-22T09:22:10;7.80;;;3.10;;
32026;SDS011;18543;50.848;4.596;2023-06-22T09:24:38;7.47;;;3.53;;
32026;SDS011;18543;50.848;4.596;2023-06-22T09:27:05;5.95;;;3.13;;
32026;SDS011;18543;50.848;4.596;2023-06-22T09:29:35;5.68;;;3.42;;
32026;SDS011;18543;50.848;4.596;2023-06-22T09:32:02;5.40;;;3.20;;
32026;SDS011;18543;50.848;4.596;2023-06-22T09:34:29;6.22;;;3.35;;
32026;SDS011;18543;50.848;4.596;2023-06-22T09:39:26;3.63;;;2.90;;
32026;SDS011;18543;50.848;4.596;2023-06-22T09:41:54;5.72;;;3.40;;
32026;SDS011;18543;50.848;4.596;2023-06-22T09:44:21;3.80;;;3.17;;
32026;SDS011;18543;50.848;4.596;2023-06-22T09:46:48;5.70;;;3.33;;
32026;SDS011;18543;50.848;4.596;2023-06-22T09:49:16;5.90;;;3.35;;
32026;SDS011;18543;50.848;4.596;2023-06-22T09:51:46;5.13;;;3.33;;
32026;SDS011;18543;50.848;4.596;2023-06-22T09:54:17;6.88;;;3.30;;
32026;SDS011;18543;50.848;4.596;2023-06-22T09:56:44;6.97;;;3.00;;
32026;SDS011;18543;50.848;4.596;2023-06-22T09:59:11;3.63;;;3.20;;
32026;SDS011;18543;50.848;4.596;2023-06-22T10:01:44;4.18;;;3.20;;
32026;SDS011;18543;50.848;4.596;2023-06-22T10:04:11;3.83;;;3.08;;
32026;SDS011;18543;50.848;4.596;2023-06-22T10:06:39;4.03;;;2.97;;
32026;SDS011;18543;50.848;4.596;2023-06-22T10:09:07;4.25;;;2.88;;
32026;SDS011;18543;50.848;4.596;2023-06-22T10:11:34;4.63;;;3.05;;
32026;SDS011;18543;50.848;4.596;2023-06-22T10:14:03;4.00;;;2.92;;
32026;SDS011;18543;50.848;4.596;2023-06-22T10:16:30;4.03;;;2.75;;
32026;SDS011;18543;50.848;4.596;2023-06-22T10:18:58;4.53;;;3.08;;
32026;SDS011;18543;50.848;4.596;2023-06-22T10:21:26;4.90;;;3.50;;
32026;SDS011;18543;50.848;4.596;2023-06-22T10:23:54;4.63;;;2.92;;
32026;SDS011;18543;50.848;4.596;2023-06-22T10:26:22;3.92;;;2.88;;
32026;SDS011;18543;50.848;4.596;2023-06-22T10:28:49;3.88;;;3.00;;
32026;SDS011;18543;50.848;4.596;2023-06-22T10:31:36;3.42;;;3.08;;
32026;SDS011;18543;50.848;4.596;2023-06-22T10:34:04;4.03;;;2.90;;
32026;SDS011;18543;50.848;4.596;2023-06-22T10:36:31;4.45;;;2.92;;
32026;SDS011;18543;50.848;4.596;2023-06-22T10:38:58;4.43;;;3.00;;
32026;SDS011;18543;50.848;4.596;2023-06-22T10:41:27;4.82;;;3.00;;
32026;SDS011;18543;50.848;4.596;2023-06-22T10:43:57;4.15;;;2.92;;
32026;SDS011;18543;50.848;4.596;2023-06-22T10:46:27;3.38;;;2.75;;
32026;SDS011;18543;50.848;4.596;2023-06-22T10:48:54;4.50;;;3.10;;
32026;SDS011;18543;50.848;4.596;2023-06-22T10:51:23;9.63;;;6.40;;
32026;SDS011;18543;50.848;4.596;2023-06-22T10:53:50;12.57;;;9.25;;
32026;SDS011;18543;50.848;4.596;2023-06-22T10:56:18;13.93;;;9.48;;
32026;SDS011;18543;50.848;4.596;2023-06-22T10:58:48;10.52;;;9.30;;
32026;SDS011;18543;50.848;4.596;2023-06-22T11:01:15;12.45;;;9.75;;
32026;SDS011;18543;50.848;4.596;2023-06-22T11:04:03;14.30;;;12.10;;
32026;SDS011;18543;50.848;4.596;2023-06-22T11:06:33;10.90;;;9.40;;
32026;SDS011;18543;50.848;4.596;2023-06-22T11:09:00;12.90;;;11.60;;
32026;SDS011;18543;50.848;4.596;2023-06-22T11:11:49;14.15;;;11.30;;
32026;SDS011;18543;50.848;4.596;2023-06-22T11:14:16;15.38;;;13.30;;
32026;SDS011;18543;50.848;4.596;2023-06-22T11:16:44;13.30;;;10.50;;
32026;SDS011;18543;50.848;4.596;2023-06-22T11:19:15;16.33;;;14.52;;
32026;SDS011;18543;50.848;4.596;2023-06-22T11:21:42;16.60;;;13.90;;
32026;SDS011;18543;50.848;4.596;2023-06-22T11:24:09;17.23;;;15.32;;
32026;SDS011;18543;50.848;4.596;2023-06-22T11:26:37;17.83;;;15.07;;
32026;SDS011;18543;50.848;4.596;2023-06-22T11:29:04;16.63;;;14.13;;
32026;SDS011;18543;50.848;4.596;2023-06-22T11:31:32;19.20;;;14.93;;
32026;SDS011;18543;50.848;4.596;2023-06-22T11:33:59;16.25;;;13.80;;
32026;SDS011;18543;50.848;4.596;2023-06-22T11:36:30;16.02;;;14.35;;
32026;SDS011;18543;50.848;4.596;2023-06-22T11:38:59;19.33;;;17.33;;
32026;SDS011;18543;50.848;4.596;2023-06-22T11:41:26;18.85;;;16.85;;
32026;SDS011;18543;50.848;4.596;2023-06-22T11:43:54;22.40;;;15.57;;
32026;SDS011;18543;50.848;4.596;2023-06-22T11:46:21;25.40;;;11.73;;
32026;SDS011;18543;50.848;4.596;2023-06-22T11:48:48;24.85;;;9.90;;
32026;SDS011;18543;50.848;4.596;2023-06-22T11:51:16;22.75;;;8.93;;
32026;SDS011;18543;50.848;4.596;2023-06-22T11:53:43;26.20;;;7.53;;
32026;SDS011;18543;50.848;4.596;2023-06-22T11:56:10;23.38;;;9.82;;
32026;SDS011;18543;50.848;4.596;2023-06-22T11:58:38;21.60;;;10.32;;
32026;SDS011;18543;50.848;4.596;2023-06-22T12:01:05;21.33;;;11.40;;
32026;SDS011;18543;50.848;4.596;2023-06-22T12:03:32;33.42;;;11.55;;
32026;SDS011;18543;50.848;4.596;2023-06-22T12:06:00;26.45;;;10.95;;
32026;SDS011;18543;50.848;4.596;2023-06-22T12:08:27;23.33;;;10.98;;
32026;SDS011;18543;50.848;4.596;2023-06-22T12:10:55;23.52;;;11.32;;
32026;SDS011;18543;50.848;4.596;2023-06-22T12:13:22;19.30;;;11.00;;
32026;SDS011;18543;50.848;4.596;2023-06-22T12:15:49;38.42;;;12.13;;
32026;SDS011;18543;50.848;4.596;2023-06-22T12:18:18;24.92;;;9.80;;
32026;SDS011;18543;50.848;4.596;2023-06-22T12:20:48;22.55;;;8.13;;
32026;SDS011;18543;50.848;4.596;2023-06-22T12:23:15;12.43;;;5.60;;
32026;SDS011;18543;50.848;4.596;2023-06-22T12:25:46;16.42;;;8.48;;
32026;SDS011;18543;50.848;4.596;2023-06-22T12:28:13;20.80;;;6.65;;
32026;SDS011;18543;50.848;4.596;2023-06-22T12:30:40;21.98;;;5.70;;
32026;SDS011;18543;50.848;4.596;2023-06-22T12:33:10;10.93;;;5.20;;
32026;SDS011;18543;50.848;4.596;2023-06-22T12:35:37;9.00;;;4.70;;
32026;SDS011;18543;50.848;4.596;2023-06-22T12:38:05;11.50;;;4.57;;
32026;SDS011;18543;50.848;4.596;2023-06-22T12:40:35;11.20;;;4.03;;
32026;SDS011;18543;50.848;4.596;2023-06-22T12:43:03;14.65;;;4.53;;
32026;SDS011;18543;50.848;4.596;2023-06-22T12:45:30;10.80;;;4.30;;
32026;SDS011;18543;50.848;4.596;2023-06-22T12:48:00;9.32;;;3.78;;
32026;SDS011;18543;50.848;4.596;2023-06-22T12:50:27;9.63;;;4.05;;
32026;SDS011;18543;50.848;4.596;2023-06-22T12:55:26;10.00;;;3.90;;
32026;SDS011;18543;50.848;4.596;2023-06-22T12:57:53;9.95;;;3.97;;
32026;SDS011;18543;50.848;4.596;2023-06-22T13:00:21;10.60;;;4.10;;
32026;SDS011;18543;50.848;4.596;2023-06-22T13:02:48;8.80;;;4.00;;
32026;SDS011;18543;50.848;4.596;2023-06-22T13:05:15;10.40;;;4.05;;
32026;SDS011;18543;50.848;4.596;2023-06-22T13:07:43;10.70;;;4.55;;
32026;SDS011;18543;50.848;4.596;2023-06-22T13:10:10;11.90;;;3.88;;
32026;SDS011;18543;50.848;4.596;2023-06-22T13:12:37;16.50;;;3.80;;
32026;SDS011;18543;50.848;4.596;2023-06-22T13:15:07;10.55;;;4.20;;
32026;SDS011;18543;50.848;4.596;2023-06-22T13:17:35;9.55;;;4.00;;
32026;SDS011;18543;50.848;4.596;2023-06-22T13:20:02;19.90;;;4.00;;
32026;SDS011;18543;50.848;4.596;2023-06-22T13:22:35;10.38;;;4.10;;
32026;SDS011;18543;50.848;4.596;2023-06-22T13:25:11;12.80;;;4.32;;
32026;SDS011;18543;50.848;4.596;2023-06-22T13:27:42;10.63;;;3.55;;
32026;SDS011;18543;50.848;4.596;2023-06-22T13:30:10;13.45;;;3.88;;
32026;SDS011;18543;50.848;4.596;2023-06-22T13:32:40;9.32;;;3.85;;
32026;SDS011;18543;50.848;4.596;2023-06-22T13:35:11;9.52;;;3.75;;
32026;SDS011;18543;50.848;4.596;2023-06-22T13:40:06;5.75;;;3.60;;
32026;SDS011;18543;50.848;4.596;2023-06-22T13:42:34;9.52;;;4.00;;
32026;SDS011;18543;50.848;4.596;2023-06-22T13:45:02;9.05;;;3.90;;
32026;SDS011;18543;50.848;4.596;2023-06-22T13:47:29;9.00;;;3.75;;
32026;SDS011;18543;50.848;4.596;2023-06-22T13:52:27;8.82;;;4.05;;
32026;SDS011;18543;50.848;4.596;2023-06-22T13:54:54;9.10;;;3.83;;
32026;SDS011;18543;50.848;4.596;2023-06-22T13:57:22;7.22;;;3.42;;
32026;SDS011;18543;50.848;4.596;2023-06-22T13:59:49;10.02;;;3.72;;
32026;SDS011;18543;50.848;4.596;2023-06-22T14:02:16;9.30;;;3.72;;
32026;SDS011;18543;50.848;4.596;2023-06-22T14:04:44;9.25;;;3.63;;
32026;SDS011;18543;50.848;4.596;2023-06-22T14:07:11;8.55;;;3.30;;
32026;SDS011;18543;50.848;4.596;2023-06-22T14:09:41;13.25;;;3.67;;
32026;SDS011;18543;50.848;4.596;2023-06-22T14:12:09;11.90;;;3.80;;
32026;SDS011;18543;50.848;4.596;2023-06-22T14:14:39;8.55;;;3.45;;
32026;SDS011;18543;50.848;4.596;2023-06-22T14:17:06;9.93;;;3.63;;
32026;SDS011;18543;50.848;4.596;2023-06-22T14:19:34;5.32;;;3.30;;
32026;SDS011;18543;50.848;4.596;2023-06-22T14:22:02;6.70;;;3.13;;
32026;SDS011;18543;50.848;4.596;2023-06-22T14:24:29;5.68;;;3.00;;
32026;SDS011;18543;50.848;4.596;2023-06-22T14:26:56;11.85;;;3.60;;
32026;SDS011;18543;50.848;4.596;2023-06-22T14:29:24;6.40;;;2.93;;
32026;SDS011;18543;50.848;4.596;2023-06-22T14:34:19;5.28;;;2.90;;
32026;SDS011;18543;50.848;4.596;2023-06-22T14:36:46;8.48;;;3.00;;
32026;SDS011;18543;50.848;4.596;2023-06-22T14:39:14;10.65;;;3.35;;
32026;SDS011;18543;50.848;4.596;2023-06-22T14:41:41;5.57;;;2.90;;
32026;SDS011;18543;50.848;4.596;2023-06-22T14:44:08;8.35;;;3.38;;
32026;SDS011;18543;50.848;4.596;2023-06-22T14:46:36;6.38;;;3.20;;
32026;SDS011;18543;50.848;4.596;2023-06-22T14:49:03;6.05;;;3.20;;
32026;SDS011;18543;50.848;4.596;2023-06-22T14:51:30;5.72;;;3.08;;
32026;SDS011;18543;50.848;4.596;2023-06-22T14:54:00;5.35;;;3.05;;
32026;SDS011;18543;50.848;4.596;2023-06-22T14:56:27;4.68;;;3.00;;
32026;SDS011;18543;50.848;4.596;2023-06-22T14:58:58;8.07;;;2.97;;
32026;SDS011;18543;50.848;4.596;2023-06-22T15:01:25;6.77;;;2.80;;
32026;SDS011;18543;50.848;4.596;2023-06-22T15:03:52;5.43;;;3.13;;
32026;SDS011;18543;50.848;4.596;2023-06-22T15:06:20;8.60;;;3.03;;
32026;SDS011;18543;50.848;4.596;2023-06-22T15:11:15;6.20;;;3.15;;
32026;SDS011;18543;50.848;4.596;2023-06-22T15:13:42;6.70;;;2.83;;
32026;SDS011;18543;50.848;4.596;2023-06-22T15:16:09;7.57;;;3.35;;
32026;SDS011;18543;50.848;4.596;2023-06-22T15:18:37;22.00;;;3.85;;
32026;SDS011;18543;50.848;4.596;2023-06-22T15:21:04;25.98;;;4.45;;
32026;SDS011;18543;50.848;4.596;2023-06-22T15:23:32;13.15;;;3.38;;
32026;SDS011;18543;50.848;4.596;2023-06-22T15:26:03;9.65;;;3.17;;
32026;SDS011;18543;50.848;4.596;2023-06-22T15:28:34;11.63;;;3.30;;
32026;SDS011;18543;50.848;4.596;2023-06-22T15:31:03;6.43;;;3.25;;
32026;SDS011;18543;50.848;4.596;2023-06-22T15:33:31;7.10;;;3.17;;